Magic Carpet — WDH7152 — position and weather

sailwx.info

Track history (hours):
 
Tides and Currents Weather Stations Pressure Air Temp Water Temp Dewpoint Dewpoint Depression Visibility Wind Speed Wind Dir Waves Ship Positions

Magic Carpet

Owner: Brede, David B, Seattle, WA. More information available from US FCC via Universal Licensing System.

Last reported at 2018-Jul-16 23:26 UTC. Time now 2018-Jul-17 16:47 UTC.
Position N 47°13' W 122°36'.

Length 14 m.

Type: Sailing vessel. MMSI: 367645320.

Date/timePositionNaut miles runAvg speedWind from/ knotsBaromVisibWave heightAir tempDewpointWater temp
2018-Jul-16 23:26N 47°13' W 122°36'6 9.1
2018-Jul-16 22:47N 47°19' W 122°34'1 0.0
2018-Jul-15 02:41N 47°20' W 122°35'2 6.2
2018-Jul-15 02:24N 47°19' W 122°32'3 7.3
2018-Jul-15 02:00N 47°20' W 122°28'3 5.7
2018-Jul-15 01:30N 47°22' W 122°24'3 6.2
2018-Jul-15 01:00N 47°25' W 122°23'4 8.4
2018-Jul-15 00:30N 47°29' W 122°25'4 7.1
2018-Jul-15 00:00N 47°32' W 122°28'2 3.9
2018-Jul-14 23:30N 47°33' W 122°30'2 4.2
2018-Jul-14 23:00N 47°35' W 122°32'4 0.5
2018-Jul-14 15:25N 47°34' W 122°37'0 0.0
2018-Jul-14 13:46N 47°34' W 122°37'0 0.0
2018-Jul-14 13:28N 47°34' W 122°37'0 0.0
2018-Jul-14 06:58N 47°34' W 122°37'0 0.0
2018-Jul-14 05:49N 47°34' W 122°37'2 0.3
2018-Jul-13 23:38N 47°35' W 122°35'110.0
2018-Jul-13 23:30N 47°36' W 122°33'3 6.7
2018-Jul-13 23:01N 47°35' W 122°29'4 7.6
2018-Jul-13 22:29N 47°37' W 122°24'1 1.2
2018-Jul-13 22:00N 47°38' W 122°24'0 0.0
2018-Jul-13 20:15N 47°38' W 122°24'0 0.0
2018-Jul-13 20:00N 47°38' W 122°24'0 0.0
2018-Jul-13 19:30N 47°38' W 122°24'0 0.0
2018-Jul-13 19:00N 47°38' W 122°24'0 0.0
2018-Jul-13 18:30N 47°38' W 122°24'0 0.0
2018-Jul-13 17:58N 47°38' W 122°24'0 0.0
2018-Jul-13 17:28N 47°38' W 122°24'0 0.0
2018-Jul-13 16:58N 47°38' W 122°24'0 0.0
2018-Jul-13 16:29N 47°38' W 122°24'0 0.0
2018-Jul-13 15:58N 47°38' W 122°24'0 0.0
2018-Jul-13 15:29N 47°38' W 122°24'0 0.0
2018-Jul-13 14:58N 47°38' W 122°24'0 0.0
2018-Jul-13 14:28N 47°38' W 122°24'0 0.0
2018-Jul-13 13:29N 47°38' W 122°24'0 0.0
2018-Jul-13 12:58N 47°38' W 122°24'0 0.0
2018-Jul-13 12:28N 47°38' W 122°24'0 0.0
2018-Jul-13 11:58N 47°38' W 122°24'0 0.0
2018-Jul-13 11:28N 47°38' W 122°24'0 0.0
2018-Jul-13 10:52N 47°38' W 122°24'0 0.0
2018-Jul-13 10:28N 47°38' W 122°24'0 0.0
2018-Jul-13 09:58N 47°38' W 122°24'0 0.0
2018-Jul-13 09:28N 47°38' W 122°24'0 0.0
2018-Jul-13 08:59N 47°38' W 122°24'0 0.0
2018-Jul-13 08:28N 47°38' W 122°24'0 0.0
2018-Jul-13 07:58N 47°38' W 122°24'0 0.0
2018-Jul-13 07:29N 47°38' W 122°24'0 0.0
2018-Jul-13 06:58N 47°38' W 122°24'0 0.0
2018-Jul-13 06:28N 47°38' W 122°24'0 0.0
2018-Jul-13 05:58N 47°38' W 122°24'0 0.0
2018-Jul-13 05:28N 47°38' W 122°24'0 0.0
2018-Jul-13 04:58N 47°38' W 122°24'0 0.0
2018-Jul-13 04:28N 47°38' W 122°24'0 0.0
2018-Jul-13 03:58N 47°38' W 122°24'0 0.0
2018-Jul-13 03:28N 47°38' W 122°24'0 0.0
2018-Jul-13 02:58N 47°38' W 122°24'0 0.0
2018-Jul-13 02:28N 47°38' W 122°24'0 0.0
2018-Jul-13 01:58N 47°38' W 122°24'0 0.0
2018-Jul-13 01:28N 47°38' W 122°24'0 0.0
2018-Jul-13 00:58N 47°38' W 122°24'0 0.0
2018-Jul-13 00:28N 47°38' W 122°24'0 0.0
2018-Jul-12 23:55N 47°38' W 122°24'0 0.0
2018-Jul-12 23:28N 47°38' W 122°24'0 0.0
2018-Jul-12 22:58N 47°38' W 122°24'0 0.0
2018-Jul-12 22:28N 47°38' W 122°24'0 0.0
2018-Jul-12 21:58N 47°38' W 122°24'0 0.0
2018-Jul-12 21:28N 47°38' W 122°24'0 0.0
2018-Jul-12 20:58N 47°38' W 122°24'0 0.0
2018-Jul-12 20:28N 47°38' W 122°24'0 0.0
2018-Jul-12 19:58N 47°38' W 122°24'0 0.0
2018-Jul-12 19:28N 47°38' W 122°24'0 0.0
2018-Jul-12 18:58N 47°38' W 122°24'0 0.0
2018-Jul-12 18:28N 47°38' W 122°24'0 0.0
2018-Jul-12 17:58N 47°38' W 122°24'0 0.0
2018-Jul-12 17:28N 47°38' W 122°24'0 0.0
2018-Jul-12 16:58N 47°38' W 122°24'0 0.0
2018-Jul-12 16:28N 47°38' W 122°24'0 0.0
2018-Jul-12 15:58N 47°38' W 122°24'0 0.0
2018-Jul-12 15:28N 47°38' W 122°24'0 0.0
2018-Jul-12 14:58N 47°38' W 122°24'0 0.0
2018-Jul-12 14:28N 47°38' W 122°24'0 0.0
2018-Jul-12 13:58N 47°38' W 122°24'0 0.0
2018-Jul-12 13:28N 47°38' W 122°24'0 0.0
2018-Jul-12 12:58N 47°38' W 122°24'0 0.0
2018-Jul-12 12:28N 47°38' W 122°24'0 0.0
2018-Jul-12 11:58N 47°38' W 122°24'0 0.0
2018-Jul-12 11:28N 47°38' W 122°24'0 0.0
2018-Jul-12 10:58N 47°38' W 122°24'0 0.0
2018-Jul-12 10:28N 47°38' W 122°24'0 0.0
2018-Jul-12 09:58N 47°38' W 122°24'0 0.0
2018-Jul-12 09:28N 47°38' W 122°24'0 0.0
2018-Jul-12 08:58N 47°38' W 122°24'0 0.0
2018-Jul-12 08:28N 47°38' W 122°24'0 0.0
2018-Jul-12 07:58N 47°38' W 122°24'0 0.0
2018-Jul-12 07:28N 47°38' W 122°24'0 0.0
2018-Jul-12 06:58N 47°38' W 122°24'0 0.0
2018-Jul-12 06:28N 47°38' W 122°24'0 0.0
2018-Jul-12 05:58N 47°38' W 122°24'0 0.0
2018-Jul-12 05:28N 47°38' W 122°24'0 0.0
2018-Jul-12 04:58N 47°38' W 122°24'0 0.0
2018-Jul-12 04:28N 47°38' W 122°24'0 0.0
2018-Jul-12 03:58N 47°38' W 122°24'0 0.0
2018-Jul-12 03:28N 47°38' W 122°24'0 0.0
2018-Jul-12 02:58N 47°38' W 122°24'0 0.0
2018-Jul-12 02:28N 47°38' W 122°24'0 0.0
2018-Jul-12 01:58N 47°38' W 122°24'0 0.0
2018-Jul-12 01:28N 47°38' W 122°24'0 0.0
2018-Jul-12 00:58N 47°38' W 122°24'0 0.0
2018-Jul-12 00:25N 47°38' W 122°24'0 0.0
2018-Jul-11 23:58N 47°38' W 122°24'0 0.0
2018-Jul-11 23:28N 47°38' W 122°24'0 0.0
2018-Jul-11 22:58N 47°38' W 122°24'0 0.0
2018-Jul-11 21:31N 47°38' W 122°24'0 0.0
2018-Jul-11 21:28N 47°38' W 122°24'0 0.0
2018-Jul-11 20:58N 47°38' W 122°24'0 0.0
2018-Jul-11 20:25N 47°38' W 122°24'0 0.0
2018-Jul-11 19:58N 47°38' W 122°24'0 0.0
2018-Jul-11 19:28N 47°38' W 122°24'0 0.0
2018-Jul-11 18:58N 47°38' W 122°24'0 0.0
2018-Jul-11 18:28N 47°38' W 122°24'0 0.0
2018-Jul-11 17:58N 47°38' W 122°24'0 0.0
2018-Jul-11 17:28N 47°38' W 122°24'0 0.0
2018-Jul-11 16:58N 47°38' W 122°24'0 0.0
2018-Jul-11 16:28N 47°38' W 122°24'0 0.0
2018-Jul-11 15:58N 47°38' W 122°24'0 0.0
2018-Jul-11 15:28N 47°38' W 122°24'0 0.0
2018-Jul-11 14:58N 47°38' W 122°24'0 0.0
2018-Jul-11 14:28N 47°38' W 122°24'0 0.0
2018-Jul-11 13:58N 47°38' W 122°24'0 0.0
2018-Jul-11 13:28N 47°38' W 122°24'0 0.0
2018-Jul-11 12:58N 47°38' W 122°24'0 0.0
2018-Jul-11 12:28N 47°38' W 122°24'0 0.0
2018-Jul-11 11:58N 47°38' W 122°24'0 0.0
2018-Jul-11 11:28N 47°38' W 122°24'0 0.0
2018-Jul-11 10:58N 47°38' W 122°24'0 0.0
2018-Jul-11 10:28N 47°38' W 122°24'0 0.0
2018-Jul-11 09:58N 47°38' W 122°24'0 0.0
2018-Jul-11 09:28N 47°38' W 122°24'0 0.0
2018-Jul-11 08:58N 47°38' W 122°24'0 0.0
2018-Jul-11 08:28N 47°38' W 122°24'0 0.0
2018-Jul-11 07:58N 47°38' W 122°24'0 0.0
2018-Jul-11 07:28N 47°38' W 122°24'0 0.0
2018-Jul-11 06:58N 47°38' W 122°24'0 0.0
2018-Jul-11 06:28N 47°38' W 122°24'0 0.0
2018-Jul-11 05:58N 47°38' W 122°24'0 0.0
2018-Jul-11 05:28N 47°38' W 122°24'0 0.0
2018-Jul-11 04:58N 47°38' W 122°24'0 0.0
2018-Jul-11 04:28N 47°38' W 122°24'0 0.0
2018-Jul-11 03:58N 47°38' W 122°24'0 0.0
2018-Jul-11 03:28N 47°38' W 122°24'0 0.0
2018-Jul-11 02:58N 47°38' W 122°24'0 0.0
2018-Jul-11 02:28N 47°38' W 122°24'0 0.0
2018-Jul-11 01:58N 47°38' W 122°24'0 0.0
2018-Jul-11 01:28N 47°38' W 122°24'0 0.0
2018-Jul-11 00:58N 47°38' W 122°24'0 0.0
2018-Jul-11 00:28N 47°38' W 122°24'0 0.0
2018-Jul-10 23:58N 47°38' W 122°24'0 0.0
2018-Jul-10 23:28N 47°38' W 122°24'0 0.0
2018-Jul-10 22:58N 47°38' W 122°24'0 0.0
2018-Jul-10 22:28N 47°38' W 122°24'0 0.0
2018-Jul-10 21:58N 47°38' W 122°24'0 0.0
2018-Jul-10 21:28N 47°38' W 122°24'0 0.0
2018-Jul-10 20:58N 47°38' W 122°24'0 0.0
2018-Jul-10 20:28N 47°38' W 122°24'0 0.0
2018-Jul-10 19:58N 47°38' W 122°24'0 0.0
2018-Jul-10 19:28N 47°38' W 122°24'0 0.0
2018-Jul-10 18:55N 47°38' W 122°24'0 0.0
2018-Jul-10 18:28N 47°38' W 122°24'0 0.0
2018-Jul-10 17:58N 47°38' W 122°24'0 0.0
2018-Jul-10 17:28N 47°38' W 122°24'0 0.0
2018-Jul-10 16:58N 47°38' W 122°24'0 0.0
2018-Jul-10 16:28N 47°38' W 122°24'0 0.0
2018-Jul-10 15:58N 47°38' W 122°24'0 0.0
2018-Jul-10 15:28N 47°38' W 122°24'0 0.0
2018-Jul-10 14:58N 47°38' W 122°24'0 0.0
2018-Jul-10 14:28N 47°38' W 122°24'0 0.0
2018-Jul-10 13:58N 47°38' W 122°24'0 0.0
2018-Jul-10 13:28N 47°38' W 122°24'0 0.0
2018-Jul-10 12:58N 47°38' W 122°24'0 0.0
2018-Jul-10 12:28N 47°38' W 122°24'0 0.0
2018-Jul-10 11:58N 47°38' W 122°24'0 0.0
2018-Jul-10 11:28N 47°38' W 122°24'0 0.0
2018-Jul-10 10:58N 47°38' W 122°24'0 0.0
2018-Jul-10 10:28N 47°38' W 122°24'0 0.0
2018-Jul-10 09:58N 47°38' W 122°24'0 0.0
2018-Jul-10 09:28N 47°38' W 122°24'0 0.0
2018-Jul-10 08:58N 47°38' W 122°24'0 0.0
2018-Jul-10 08:28N 47°38' W 122°24'0 0.0
2018-Jul-10 07:58N 47°38' W 122°24'0 0.0
2018-Jul-10 07:28N 47°38' W 122°24'0 0.0
2018-Jul-10 06:58N 47°38' W 122°24'0 0.0
2018-Jul-10 06:28N 47°38' W 122°24'0 0.0
2018-Jul-10 05:58N 47°38' W 122°24'0 0.0
2018-Jul-10 05:28N 47°38' W 122°24'0 0.0
2018-Jul-10 04:58N 47°38' W 122°24'0 0.0
2018-Jul-10 04:28N 47°38' W 122°24'0 0.0
2018-Jul-10 03:58N 47°38' W 122°24'0 0.0
2018-Jul-10 03:28N 47°38' W 122°24'0 0.0
2018-Jul-10 02:58N 47°38' W 122°24'0 0.0
2018-Jul-10 02:28N 47°38' W 122°24'0 0.0
2018-Jul-10 01:58N 47°38' W 122°24'0 0.0
2018-Jul-10 01:28N 47°38' W 122°24'0 0.0
2018-Jul-10 00:57N 47°38' W 122°24'0 0.4
2018-Jul-10 00:28N 47°38' W 122°24'0 1.0
2018-Jul-10 00:00N 47°37' W 122°24'3 6.0
2018-Jul-09 23:30N 47°35' W 122°25'3 7.0
2018-Jul-09 23:00N 47°31' W 122°25'4 7.2
2018-Jul-09 22:30N 47°28' W 122°24'3 6.7
2018-Jul-09 22:00N 47°24' W 122°23'2 3.4
2018-Jul-09 21:30N 47°23' W 122°23'2 3.5
2018-Jul-09 21:01N 47°21' W 122°25'2 3.8
2018-Jul-09 20:30N 47°20' W 122°27'1 2.8
2018-Jul-09 20:00N 47°21' W 122°29'1 2.7
2018-Jul-09 19:29N 47°23' W 122°27'0 0.0
2018-Jul-09 18:59N 47°23' W 122°27'0 0.0
2018-Jul-09 18:29N 47°23' W 122°27'0 0.0
2018-Jul-09 17:53N 47°23' W 122°27'0 0.0
2018-Jul-09 17:29N 47°23' W 122°27'0 0.0
2018-Jul-09 16:59N 47°23' W 122°27'0 0.0
2018-Jul-09 16:29N 47°23' W 122°27'0 0.0
2018-Jul-09 15:59N 47°23' W 122°27'0 0.0
2018-Jul-09 15:29N 47°23' W 122°27'0 0.0
2018-Jul-09 14:59N 47°23' W 122°27'0 0.0
2018-Jul-09 14:29N 47°23' W 122°27'0 0.0
2018-Jul-09 13:59N 47°23' W 122°27'0 0.0
2018-Jul-09 13:26N 47°23' W 122°27'0 0.0
2018-Jul-09 12:59N 47°23' W 122°27'0 0.0
2018-Jul-09 12:29N 47°23' W 122°27'0 0.0
2018-Jul-09 11:59N 47°23' W 122°27'0 0.0
2018-Jul-09 11:26N 47°23' W 122°27'0 0.0
2018-Jul-09 10:59N 47°23' W 122°27'0 0.0
2018-Jul-09 10:29N 47°23' W 122°27'0 0.1
2018-Jul-09 09:59N 47°23' W 122°27'0 0.1
2018-Jul-09 09:29N 47°23' W 122°27'0 0.0
2018-Jul-09 08:59N 47°23' W 122°27'0 0.0
2018-Jul-09 08:29N 47°23' W 122°27'0 0.0
2018-Jul-09 07:59N 47°23' W 122°27'0 0.1
2018-Jul-09 07:29N 47°23' W 122°27'0 0.1
2018-Jul-09 06:59N 47°23' W 122°27'0 0.1
2018-Jul-09 06:29N 47°23' W 122°27'0 0.0
2018-Jul-09 05:56N 47°23' W 122°27'0 0.1
2018-Jul-09 05:29N 47°23' W 122°27'0 0.1
2018-Jul-09 04:56N 47°23' W 122°27'0 0.0
2018-Jul-09 04:29N 47°23' W 122°27'0 0.0
2018-Jul-09 03:59N 47°23' W 122°27'0 0.0
2018-Jul-09 03:29N 47°23' W 122°27'0 0.0
2018-Jul-09 02:56N 47°23' W 122°27'0 0.0
2018-Jul-09 02:29N 47°23' W 122°27'0 0.0
2018-Jul-09 01:59N 47°23' W 122°27'0 0.0
2018-Jul-09 01:29N 47°23' W 122°27'0 0.0
2018-Jul-09 00:59N 47°23' W 122°27'0 0.0
2018-Jul-09 00:29N 47°23' W 122°27'0 0.0
2018-Jul-08 23:59N 47°23' W 122°27'0 0.0
2018-Jul-08 23:29N 47°23' W 122°27'0 0.0
2018-Jul-08 22:59N 47°23' W 122°27'0 0.0
2018-Jul-08 22:29N 47°23' W 122°27'0 0.0
2018-Jul-08 21:53N 47°23' W 122°27'0 0.0
2018-Jul-08 21:29N 47°23' W 122°27'0 0.1
2018-Jul-08 20:56N 47°23' W 122°27'0 0.1
2018-Jul-08 20:26N 47°23' W 122°27'0 0.0
2018-Jul-08 19:59N 47°23' W 122°27'0 0.0
2018-Jul-08 19:20N 47°23' W 122°27'0 0.0
2018-Jul-08 18:59N 47°23' W 122°27'0 0.0
2018-Jul-08 18:29N 47°23' W 122°27'0 0.0
2018-Jul-08 17:59N 47°23' W 122°27'0 0.0
2018-Jul-08 17:23N 47°23' W 122°27'0 0.0
2018-Jul-08 16:56N 47°23' W 122°27'0 0.0
2018-Jul-08 16:26N 47°23' W 122°27'0 0.0
2018-Jul-08 15:59N 47°23' W 122°27'0 0.0
2018-Jul-08 15:29N 47°23' W 122°27'0 0.0
2018-Jul-08 14:59N 47°23' W 122°27'0 0.0
2018-Jul-08 14:29N 47°23' W 122°27'0 0.1
2018-Jul-08 13:59N 47°23' W 122°27'0 0.0
2018-Jul-08 13:29N 47°23' W 122°27'0 0.1
2018-Jul-08 12:59N 47°23' W 122°27'0 0.0
2018-Jul-08 12:29N 47°23' W 122°27'0 0.0
2018-Jul-08 11:59N 47°23' W 122°27'0 0.0
2018-Jul-08 11:30N 47°23' W 122°27'0 0.0
2018-Jul-08 10:57N 47°23' W 122°27'0 0.0
2018-Jul-08 10:30N 47°23' W 122°27'0 0.1
2018-Jul-08 10:00N 47°23' W 122°27'0 0.0
2018-Jul-08 09:27N 47°23' W 122°27'0 0.0
2018-Jul-08 08:57N 47°23' W 122°27'0 0.0
2018-Jul-08 08:30N 47°23' W 122°27'0 0.0
2018-Jul-08 08:00N 47°23' W 122°27'0 0.1
2018-Jul-08 07:27N 47°23' W 122°27'0 0.0
2018-Jul-08 07:00N 47°23' W 122°27'0 0.0
2018-Jul-08 06:30N 47°23' W 122°27'0 0.1
2018-Jul-08 06:00N 47°23' W 122°27'0 0.0
2018-Jul-08 05:30N 47°23' W 122°27'0 0.0
2018-Jul-08 05:00N 47°23' W 122°27'0 0.1
2018-Jul-08 04:27N 47°23' W 122°27'0 0.1
2018-Jul-08 04:00N 47°23' W 122°27'0 0.0
2018-Jul-08 03:30N 47°23' W 122°27'0 0.0
2018-Jul-08 03:00N 47°23' W 122°27'0 0.0
2018-Jul-08 02:30N 47°23' W 122°27'0 0.0
2018-Jul-08 02:00N 47°23' W 122°27'0 0.0
2018-Jul-08 01:30N 47°23' W 122°27'0 0.0
2018-Jul-08 00:54N 47°23' W 122°27'0 0.0
2018-Jul-08 00:30N 47°23' W 122°27'0 0.0
2018-Jul-07 23:57N 47°23' W 122°27'0 0.3
2018-Jul-07 23:30N 47°23' W 122°27'2 4.9
2018-Jul-07 23:00N 47°20' W 122°29'3 4.2
2018-Jul-07 22:24N 47°22' W 122°32'3 6.5
2018-Jul-07 21:58N 47°25' W 122°31'3 6.1
2018-Jul-07 21:30N 47°28' W 122°31'3 6.5
2018-Jul-07 21:00N 47°31' W 122°29'2 3.1
2018-Jul-07 20:30N 47°32' W 122°30'0 0.0
2018-Jul-07 20:00N 47°32' W 122°30'0 0.0
2018-Jul-07 19:18N 47°32' W 122°30'0 0.0
2018-Jul-07 19:00N 47°32' W 122°30'0 0.0
2018-Jul-07 18:24N 47°32' W 122°30'0 0.0
2018-Jul-07 18:00N 47°32' W 122°30'0 0.0
2018-Jul-07 17:30N 47°32' W 122°30'0 0.1
2018-Jul-07 16:54N 47°32' W 122°30'0 0.0
2018-Jul-07 16:30N 47°32' W 122°30'0 0.0
2018-Jul-07 16:00N 47°32' W 122°30'0 0.1
2018-Jul-07 15:24N 47°32' W 122°30'0 0.0
2018-Jul-07 15:00N 47°32' W 122°30'0 0.1
2018-Jul-07 14:27N 47°32' W 122°30'0 0.0
2018-Jul-07 13:42N 47°32' W 122°30'0 0.0
2018-Jul-07 13:30N 47°32' W 122°30'0 0.1
2018-Jul-07 13:00N 47°32' W 122°30'0 0.0
2018-Jul-07 12:27N 47°32' W 122°30'0 0.0
2018-Jul-07 12:00N 47°32' W 122°30'0 0.0
2018-Jul-07 11:30N 47°32' W 122°30'0 0.1
2018-Jul-07 11:00N 47°32' W 122°30'0 0.0
2018-Jul-07 10:30N 47°32' W 122°30'0 0.0
2018-Jul-07 10:00N 47°32' W 122°30'0 0.0
2018-Jul-07 09:30N 47°32' W 122°30'0 0.0
2018-Jul-07 09:00N 47°32' W 122°30'0 0.0
2018-Jul-07 08:30N 47°32' W 122°30'0 0.0
2018-Jul-07 08:00N 47°32' W 122°30'0 0.0
2018-Jul-07 07:29N 47°32' W 122°30'0 0.0
2018-Jul-07 06:52N 47°32' W 122°30'0 0.0
2018-Jul-07 06:28N 47°32' W 122°30'0 0.0
2018-Jul-07 05:58N 47°32' W 122°30'0 0.0
2018-Jul-07 05:22N 47°32' W 122°30'0 0.0
2018-Jul-07 04:52N 47°32' W 122°30'0 0.0
2018-Jul-07 04:19N 47°32' W 122°30'0 0.0
2018-Jul-07 03:58N 47°32' W 122°30'0 0.1
2018-Jul-07 03:18N 47°32' W 122°30'0 0.0
2018-Jul-07 02:57N 47°32' W 122°30'0 0.0
2018-Jul-07 02:18N 47°32' W 122°30'0 0.0
2018-Jul-07 01:51N 47°32' W 122°30'0 0.0
2018-Jul-07 01:30N 47°32' W 122°30'0 0.0
2018-Jul-07 01:00N 47°32' W 122°30'0 0.3
2018-Jul-07 00:28N 47°32' W 122°30'3 5.7
2018-Jul-07 00:00N 47°34' W 122°28'3 6.3
2018-Jul-06 23:30N 47°37' W 122°25'  
Track history (hours):
 
Tides and Currents Weather Stations Pressure Air Temp Water Temp Dewpoint Dewpoint Depression Visibility Wind Speed Wind Dir Waves Ship Positions

Magic Carpet

Owner: Brede, David B, Seattle, WA. More information available from US FCC via Universal Licensing System.

Last reported at 2018-Jul-16 23:26 UTC. Time now 2018-Jul-17 16:47 UTC.
Position N 47°13' W 122°36'.

Length 14 m.

Type: Sailing vessel. MMSI: 367645320.

Date/timePositionNaut miles runAvg speedWind from/ knotsBaromVisibWave heightAir tempDewpointWater temp
2018-Jul-16 23:26N 47°13' W 122°36'6 9.1
2018-Jul-16 22:47N 47°19' W 122°34'1 0.0
2018-Jul-15 02:41N 47°20' W 122°35'2 6.2
2018-Jul-15 02:24N 47°19' W 122°32'3 7.3
2018-Jul-15 02:00N 47°20' W 122°28'3 5.7
2018-Jul-15 01:30N 47°22' W 122°24'3 6.2
2018-Jul-15 01:00N 47°25' W 122°23'4 8.4
2018-Jul-15 00:30N 47°29' W 122°25'4 7.1
2018-Jul-15 00:00N 47°32' W 122°28'2 3.9
2018-Jul-14 23:30N 47°33' W 122°30'2 4.2
2018-Jul-14 23:00N 47°35' W 122°32'4 0.5
2018-Jul-14 15:25N 47°34' W 122°37'0 0.0
2018-Jul-14 13:46N 47°34' W 122°37'0 0.0
2018-Jul-14 13:28N 47°34' W 122°37'0 0.0
2018-Jul-14 06:58N 47°34' W 122°37'0 0.0
2018-Jul-14 05:49N 47°34' W 122°37'2 0.3
2018-Jul-13 23:38N 47°35' W 122°35'110.0
2018-Jul-13 23:30N 47°36' W 122°33'3 6.7
2018-Jul-13 23:01N 47°35' W 122°29'4 7.6
2018-Jul-13 22:29N 47°37' W 122°24'1 1.2
2018-Jul-13 22:00N 47°38' W 122°24'0 0.0
2018-Jul-13 20:15N 47°38' W 122°24'0 0.0
2018-Jul-13 20:00N 47°38' W 122°24'0 0.0
2018-Jul-13 19:30N 47°38' W 122°24'0 0.0
2018-Jul-13 19:00N 47°38' W 122°24'0 0.0
2018-Jul-13 18:30N 47°38' W 122°24'0 0.0
2018-Jul-13 17:58N 47°38' W 122°24'0 0.0
2018-Jul-13 17:28N 47°38' W 122°24'0 0.0
2018-Jul-13 16:58N 47°38' W 122°24'0 0.0
2018-Jul-13 16:29N 47°38' W 122°24'0 0.0
2018-Jul-13 15:58N 47°38' W 122°24'0 0.0
2018-Jul-13 15:29N 47°38' W 122°24'0 0.0
2018-Jul-13 14:58N 47°38' W 122°24'0 0.0
2018-Jul-13 14:28N 47°38' W 122°24'0 0.0
2018-Jul-13 13:29N 47°38' W 122°24'0 0.0
2018-Jul-13 12:58N 47°38' W 122°24'0 0.0
2018-Jul-13 12:28N 47°38' W 122°24'0 0.0
2018-Jul-13 11:58N 47°38' W 122°24'0 0.0
2018-Jul-13 11:28N 47°38' W 122°24'0 0.0
2018-Jul-13 10:52N 47°38' W 122°24'0 0.0
2018-Jul-13 10:28N 47°38' W 122°24'0 0.0
2018-Jul-13 09:58N 47°38' W 122°24'0 0.0
2018-Jul-13 09:28N 47°38' W 122°24'0 0.0
2018-Jul-13 08:59N 47°38' W 122°24'0 0.0
2018-Jul-13 08:28N 47°38' W 122°24'0 0.0
2018-Jul-13 07:58N 47°38' W 122°24'0 0.0
2018-Jul-13 07:29N 47°38' W 122°24'0 0.0
2018-Jul-13 06:58N 47°38' W 122°24'0 0.0
2018-Jul-13 06:28N 47°38' W 122°24'0 0.0
2018-Jul-13 05:58N 47°38' W 122°24'0 0.0
2018-Jul-13 05:28N 47°38' W 122°24'0 0.0
2018-Jul-13 04:58N 47°38' W 122°24'0 0.0
2018-Jul-13 04:28N 47°38' W 122°24'0 0.0
2018-Jul-13 03:58N 47°38' W 122°24'0 0.0
2018-Jul-13 03:28N 47°38' W 122°24'0 0.0
2018-Jul-13 02:58N 47°38' W 122°24'0 0.0
2018-Jul-13 02:28N 47°38' W 122°24'0 0.0
2018-Jul-13 01:58N 47°38' W 122°24'0 0.0
2018-Jul-13 01:28N 47°38' W 122°24'0 0.0
2018-Jul-13 00:58N 47°38' W 122°24'0 0.0
2018-Jul-13 00:28N 47°38' W 122°24'0 0.0
2018-Jul-12 23:55N 47°38' W 122°24'0 0.0
2018-Jul-12 23:28N 47°38' W 122°24'0 0.0
2018-Jul-12 22:58N 47°38' W 122°24'0 0.0
2018-Jul-12 22:28N 47°38' W 122°24'0 0.0
2018-Jul-12 21:58N 47°38' W 122°24'0 0.0
2018-Jul-12 21:28N 47°38' W 122°24'0 0.0
2018-Jul-12 20:58N 47°38' W 122°24'0 0.0
2018-Jul-12 20:28N 47°38' W 122°24'0 0.0
2018-Jul-12 19:58N 47°38' W 122°24'0 0.0
2018-Jul-12 19:28N 47°38' W 122°24'0 0.0
2018-Jul-12 18:58N 47°38' W 122°24'0 0.0
2018-Jul-12 18:28N 47°38' W 122°24'0 0.0
2018-Jul-12 17:58N 47°38' W 122°24'0 0.0
2018-Jul-12 17:28N 47°38' W 122°24'0 0.0
2018-Jul-12 16:58N 47°38' W 122°24'0 0.0
2018-Jul-12 16:28N 47°38' W 122°24'0 0.0
2018-Jul-12 15:58N 47°38' W 122°24'0 0.0
2018-Jul-12 15:28N 47°38' W 122°24'0 0.0
2018-Jul-12 14:58N 47°38' W 122°24'0 0.0
2018-Jul-12 14:28N 47°38' W 122°24'0 0.0
2018-Jul-12 13:58N 47°38' W 122°24'0 0.0
2018-Jul-12 13:28N 47°38' W 122°24'0 0.0
2018-Jul-12 12:58N 47°38' W 122°24'0 0.0
2018-Jul-12 12:28N 47°38' W 122°24'0 0.0
2018-Jul-12 11:58N 47°38' W 122°24'0 0.0
2018-Jul-12 11:28N 47°38' W 122°24'0 0.0
2018-Jul-12 10:58N 47°38' W 122°24'0 0.0
2018-Jul-12 10:28N 47°38' W 122°24'0 0.0
2018-Jul-12 09:58N 47°38' W 122°24'0 0.0
2018-Jul-12 09:28N 47°38' W 122°24'0 0.0
2018-Jul-12 08:58N 47°38' W 122°24'0 0.0
2018-Jul-12 08:28N 47°38' W 122°24'0 0.0
2018-Jul-12 07:58N 47°38' W 122°24'0 0.0
2018-Jul-12 07:28N 47°38' W 122°24'0 0.0
2018-Jul-12 06:58N 47°38' W 122°24'0 0.0
2018-Jul-12 06:28N 47°38' W 122°24'0 0.0
2018-Jul-12 05:58N 47°38' W 122°24'0 0.0
2018-Jul-12 05:28N 47°38' W 122°24'0 0.0
2018-Jul-12 04:58N 47°38' W 122°24'0 0.0
2018-Jul-12 04:28N 47°38' W 122°24'0 0.0
2018-Jul-12 03:58N 47°38' W 122°24'0 0.0
2018-Jul-12 03:28N 47°38' W 122°24'0 0.0
2018-Jul-12 02:58N 47°38' W 122°24'0 0.0
2018-Jul-12 02:28N 47°38' W 122°24'0 0.0
2018-Jul-12 01:58N 47°38' W 122°24'0 0.0
2018-Jul-12 01:28N 47°38' W 122°24'0 0.0
2018-Jul-12 00:58N 47°38' W 122°24'0 0.0
2018-Jul-12 00:25N 47°38' W 122°24'0 0.0
2018-Jul-11 23:58N 47°38' W 122°24'0 0.0
2018-Jul-11 23:28N 47°38' W 122°24'0 0.0
2018-Jul-11 22:58N 47°38' W 122°24'0 0.0
2018-Jul-11 21:31N 47°38' W 122°24'0 0.0
2018-Jul-11 21:28N 47°38' W 122°24'0 0.0
2018-Jul-11 20:58N 47°38' W 122°24'0 0.0
2018-Jul-11 20:25N 47°38' W 122°24'0 0.0
2018-Jul-11 19:58N 47°38' W 122°24'0 0.0
2018-Jul-11 19:28N 47°38' W 122°24'0 0.0
2018-Jul-11 18:58N 47°38' W 122°24'0 0.0
2018-Jul-11 18:28N 47°38' W 122°24'0 0.0
2018-Jul-11 17:58N 47°38' W 122°24'0 0.0
2018-Jul-11 17:28N 47°38' W 122°24'0 0.0
2018-Jul-11 16:58N 47°38' W 122°24'0 0.0
2018-Jul-11 16:28N 47°38' W 122°24'0 0.0
2018-Jul-11 15:58N 47°38' W 122°24'0 0.0
2018-Jul-11 15:28N 47°38' W 122°24'0 0.0
2018-Jul-11 14:58N 47°38' W 122°24'0 0.0
2018-Jul-11 14:28N 47°38' W 122°24'0 0.0
2018-Jul-11 13:58N 47°38' W 122°24'0 0.0
2018-Jul-11 13:28N 47°38' W 122°24'0 0.0
2018-Jul-11 12:58N 47°38' W 122°24'0 0.0
2018-Jul-11 12:28N 47°38' W 122°24'0 0.0
2018-Jul-11 11:58N 47°38' W 122°24'0 0.0
2018-Jul-11 11:28N 47°38' W 122°24'0 0.0
2018-Jul-11 10:58N 47°38' W 122°24'0 0.0
2018-Jul-11 10:28N 47°38' W 122°24'0 0.0
2018-Jul-11 09:58N 47°38' W 122°24'0 0.0
2018-Jul-11 09:28N 47°38' W 122°24'0 0.0
2018-Jul-11 08:58N 47°38' W 122°24'0 0.0
2018-Jul-11 08:28N 47°38' W 122°24'0 0.0
2018-Jul-11 07:58N 47°38' W 122°24'0 0.0
2018-Jul-11 07:28N 47°38' W 122°24'0 0.0
2018-Jul-11 06:58N 47°38' W 122°24'0 0.0
2018-Jul-11 06:28N 47°38' W 122°24'0 0.0
2018-Jul-11 05:58N 47°38' W 122°24'0 0.0
2018-Jul-11 05:28N 47°38' W 122°24'0 0.0
2018-Jul-11 04:58N 47°38' W 122°24'0 0.0
2018-Jul-11 04:28N 47°38' W 122°24'0 0.0
2018-Jul-11 03:58N 47°38' W 122°24'0 0.0
2018-Jul-11 03:28N 47°38' W 122°24'0 0.0
2018-Jul-11 02:58N 47°38' W 122°24'0 0.0
2018-Jul-11 02:28N 47°38' W 122°24'0 0.0
2018-Jul-11 01:58N 47°38' W 122°24'0 0.0
2018-Jul-11 01:28N 47°38' W 122°24'0 0.0
2018-Jul-11 00:58N 47°38' W 122°24'0 0.0
2018-Jul-11 00:28N 47°38' W 122°24'0 0.0
2018-Jul-10 23:58N 47°38' W 122°24'0 0.0
2018-Jul-10 23:28N 47°38' W 122°24'0 0.0
2018-Jul-10 22:58N 47°38' W 122°24'0 0.0
2018-Jul-10 22:28N 47°38' W 122°24'0 0.0
2018-Jul-10 21:58N 47°38' W 122°24'0 0.0
2018-Jul-10 21:28N 47°38' W 122°24'0 0.0
2018-Jul-10 20:58N 47°38' W 122°24'0 0.0
2018-Jul-10 20:28N 47°38' W 122°24'0 0.0
2018-Jul-10 19:58N 47°38' W 122°24'0 0.0
2018-Jul-10 19:28N 47°38' W 122°24'0 0.0
2018-Jul-10 18:55N 47°38' W 122°24'0 0.0
2018-Jul-10 18:28N 47°38' W 122°24'0 0.0
2018-Jul-10 17:58N 47°38' W 122°24'0 0.0
2018-Jul-10 17:28N 47°38' W 122°24'0 0.0
2018-Jul-10 16:58N 47°38' W 122°24'0 0.0
2018-Jul-10 16:28N 47°38' W 122°24'0 0.0
2018-Jul-10 15:58N 47°38' W 122°24'0 0.0
2018-Jul-10 15:28N 47°38' W 122°24'0 0.0
2018-Jul-10 14:58N 47°38' W 122°24'0 0.0
2018-Jul-10 14:28N 47°38' W 122°24'0 0.0
2018-Jul-10 13:58N 47°38' W 122°24'0 0.0
2018-Jul-10 13:28N 47°38' W 122°24'0 0.0
2018-Jul-10 12:58N 47°38' W 122°24'0 0.0
2018-Jul-10 12:28N 47°38' W 122°24'0 0.0
2018-Jul-10 11:58N 47°38' W 122°24'0 0.0
2018-Jul-10 11:28N 47°38' W 122°24'0 0.0
2018-Jul-10 10:58N 47°38' W 122°24'0 0.0
2018-Jul-10 10:28N 47°38' W 122°24'0 0.0
2018-Jul-10 09:58N 47°38' W 122°24'0 0.0
2018-Jul-10 09:28N 47°38' W 122°24'0 0.0
2018-Jul-10 08:58N 47°38' W 122°24'0 0.0
2018-Jul-10 08:28N 47°38' W 122°24'0 0.0
2018-Jul-10 07:58N 47°38' W 122°24'0 0.0
2018-Jul-10 07:28N 47°38' W 122°24'0 0.0
2018-Jul-10 06:58N 47°38' W 122°24'0 0.0
2018-Jul-10 06:28N 47°38' W 122°24'0 0.0
2018-Jul-10 05:58N 47°38' W 122°24'0 0.0
2018-Jul-10 05:28N 47°38' W 122°24'0 0.0
2018-Jul-10 04:58N 47°38' W 122°24'0 0.0
2018-Jul-10 04:28N 47°38' W 122°24'0 0.0
2018-Jul-10 03:58N 47°38' W 122°24'0 0.0
2018-Jul-10 03:28N 47°38' W 122°24'0 0.0
2018-Jul-10 02:58N 47°38' W 122°24'0 0.0
2018-Jul-10 02:28N 47°38' W 122°24'0 0.0
2018-Jul-10 01:58N 47°38' W 122°24'0 0.0
2018-Jul-10 01:28N 47°38' W 122°24'0 0.0
2018-Jul-10 00:57N 47°38' W 122°24'0 0.4
2018-Jul-10 00:28N 47°38' W 122°24'0 1.0
2018-Jul-10 00:00N 47°37' W 122°24'3 6.0
2018-Jul-09 23:30N 47°35' W 122°25'3 7.0
2018-Jul-09 23:00N 47°31' W 122°25'4 7.2
2018-Jul-09 22:30N 47°28' W 122°24'3 6.7
2018-Jul-09 22:00N 47°24' W 122°23'2 3.4
2018-Jul-09 21:30N 47°23' W 122°23'2 3.5
2018-Jul-09 21:01N 47°21' W 122°25'2 3.8
2018-Jul-09 20:30N 47°20' W 122°27'1 2.8
2018-Jul-09 20:00N 47°21' W 122°29'1 2.7
2018-Jul-09 19:29N 47°23' W 122°27'0 0.0
2018-Jul-09 18:59N 47°23' W 122°27'0 0.0
2018-Jul-09 18:29N 47°23' W 122°27'0 0.0
2018-Jul-09 17:53N 47°23' W 122°27'0 0.0
2018-Jul-09 17:29N 47°23' W 122°27'0 0.0
2018-Jul-09 16:59N 47°23' W 122°27'0 0.0
2018-Jul-09 16:29N 47°23' W 122°27'0 0.0
2018-Jul-09 15:59N 47°23' W 122°27'0 0.0
2018-Jul-09 15:29N 47°23' W 122°27'0 0.0
2018-Jul-09 14:59N 47°23' W 122°27'0 0.0
2018-Jul-09 14:29N 47°23' W 122°27'0 0.0
2018-Jul-09 13:59N 47°23' W 122°27'0 0.0
2018-Jul-09 13:26N 47°23' W 122°27'0 0.0
2018-Jul-09 12:59N 47°23' W 122°27'0 0.0
2018-Jul-09 12:29N 47°23' W 122°27'0 0.0
2018-Jul-09 11:59N 47°23' W 122°27'0 0.0
2018-Jul-09 11:26N 47°23' W 122°27'0 0.0
2018-Jul-09 10:59N 47°23' W 122°27'0 0.0
2018-Jul-09 10:29N 47°23' W 122°27'0 0.1
2018-Jul-09 09:59N 47°23' W 122°27'0 0.1
2018-Jul-09 09:29N 47°23' W 122°27'0 0.0
2018-Jul-09 08:59N 47°23' W 122°27'0 0.0
2018-Jul-09 08:29N 47°23' W 122°27'0 0.0
2018-Jul-09 07:59N 47°23' W 122°27'0 0.1
2018-Jul-09 07:29N 47°23' W 122°27'0 0.1
2018-Jul-09 06:59N 47°23' W 122°27'0 0.1
2018-Jul-09 06:29N 47°23' W 122°27'0 0.0
2018-Jul-09 05:56N 47°23' W 122°27'0 0.1
2018-Jul-09 05:29N 47°23' W 122°27'0 0.1
2018-Jul-09 04:56N 47°23' W 122°27'0 0.0
2018-Jul-09 04:29N 47°23' W 122°27'0 0.0
2018-Jul-09 03:59N 47°23' W 122°27'0 0.0
2018-Jul-09 03:29N 47°23' W 122°27'0 0.0
2018-Jul-09 02:56N 47°23' W 122°27'0 0.0
2018-Jul-09 02:29N 47°23' W 122°27'0 0.0
2018-Jul-09 01:59N 47°23' W 122°27'0 0.0
2018-Jul-09 01:29N 47°23' W 122°27'0 0.0
2018-Jul-09 00:59N 47°23' W 122°27'0 0.0
2018-Jul-09 00:29N 47°23' W 122°27'0 0.0
2018-Jul-08 23:59N 47°23' W 122°27'0 0.0
2018-Jul-08 23:29N 47°23' W 122°27'0 0.0
2018-Jul-08 22:59N 47°23' W 122°27'0 0.0
2018-Jul-08 22:29N 47°23' W 122°27'0 0.0
2018-Jul-08 21:53N 47°23' W 122°27'0 0.0
2018-Jul-08 21:29N 47°23' W 122°27'0 0.1
2018-Jul-08 20:56N 47°23' W 122°27'0 0.1
2018-Jul-08 20:26N 47°23' W 122°27'0 0.0
2018-Jul-08 19:59N 47°23' W 122°27'0 0.0
2018-Jul-08 19:20N 47°23' W 122°27'0 0.0
2018-Jul-08 18:59N 47°23' W 122°27'0 0.0
2018-Jul-08 18:29N 47°23' W 122°27'0 0.0
2018-Jul-08 17:59N 47°23' W 122°27'0 0.0
2018-Jul-08 17:23N 47°23' W 122°27'0 0.0
2018-Jul-08 16:56N 47°23' W 122°27'0 0.0
2018-Jul-08 16:26N 47°23' W 122°27'0 0.0
2018-Jul-08 15:59N 47°23' W 122°27'0 0.0
2018-Jul-08 15:29N 47°23' W 122°27'0 0.0
2018-Jul-08 14:59N 47°23' W 122°27'0 0.0
2018-Jul-08 14:29N 47°23' W 122°27'0 0.1
2018-Jul-08 13:59N 47°23' W 122°27'0 0.0
2018-Jul-08 13:29N 47°23' W 122°27'0 0.1
2018-Jul-08 12:59N 47°23' W 122°27'0 0.0
2018-Jul-08 12:29N 47°23' W 122°27'0 0.0
2018-Jul-08 11:59N 47°23' W 122°27'0 0.0
2018-Jul-08 11:30N 47°23' W 122°27'0 0.0
2018-Jul-08 10:57N 47°23' W 122°27'0 0.0
2018-Jul-08 10:30N 47°23' W 122°27'0 0.1
2018-Jul-08 10:00N 47°23' W 122°27'0 0.0
2018-Jul-08 09:27N 47°23' W 122°27'0 0.0
2018-Jul-08 08:57N 47°23' W 122°27'0 0.0
2018-Jul-08 08:30N 47°23' W 122°27'0 0.0
2018-Jul-08 08:00N 47°23' W 122°27'0 0.1
2018-Jul-08 07:27N 47°23' W 122°27'0 0.0
2018-Jul-08 07:00N 47°23' W 122°27'0 0.0
2018-Jul-08 06:30N 47°23' W 122°27'0 0.1
2018-Jul-08 06:00N 47°23' W 122°27'0 0.0
2018-Jul-08 05:30N 47°23' W 122°27'0 0.0
2018-Jul-08 05:00N 47°23' W 122°27'0 0.1
2018-Jul-08 04:27N 47°23' W 122°27'0 0.1
2018-Jul-08 04:00N 47°23' W 122°27'0 0.0
2018-Jul-08 03:30N 47°23' W 122°27'0 0.0
2018-Jul-08 03:00N 47°23' W 122°27'0 0.0
2018-Jul-08 02:30N 47°23' W 122°27'0 0.0
2018-Jul-08 02:00N 47°23' W 122°27'0 0.0
2018-Jul-08 01:30N 47°23' W 122°27'0 0.0
2018-Jul-08 00:54N 47°23' W 122°27'0 0.0
2018-Jul-08 00:30N 47°23' W 122°27'0 0.0
2018-Jul-07 23:57N 47°23' W 122°27'0 0.3
2018-Jul-07 23:30N 47°23' W 122°27'2 4.9
2018-Jul-07 23:00N 47°20' W 122°29'3 4.2
2018-Jul-07 22:24N 47°22' W 122°32'3 6.5
2018-Jul-07 21:58N 47°25' W 122°31'3 6.1
2018-Jul-07 21:30N 47°28' W 122°31'3 6.5
2018-Jul-07 21:00N 47°31' W 122°29'2 3.1
2018-Jul-07 20:30N 47°32' W 122°30'0 0.0
2018-Jul-07 20:00N 47°32' W 122°30'0 0.0
2018-Jul-07 19:18N 47°32' W 122°30'0 0.0
2018-Jul-07 19:00N 47°32' W 122°30'0 0.0
2018-Jul-07 18:24N 47°32' W 122°30'0 0.0
2018-Jul-07 18:00N 47°32' W 122°30'0 0.0
2018-Jul-07 17:30N 47°32' W 122°30'0 0.1
2018-Jul-07 16:54N 47°32' W 122°30'0 0.0
2018-Jul-07 16:30N 47°32' W 122°30'0 0.0
2018-Jul-07 16:00N 47°32' W 122°30'0 0.1
2018-Jul-07 15:24N 47°32' W 122°30'0 0.0
2018-Jul-07 15:00N 47°32' W 122°30'0 0.1
2018-Jul-07 14:27N 47°32' W 122°30'0 0.0
2018-Jul-07 13:42N 47°32' W 122°30'0 0.0
2018-Jul-07 13:30N 47°32' W 122°30'0 0.1
2018-Jul-07 13:00N 47°32' W 122°30'0 0.0
2018-Jul-07 12:27N 47°32' W 122°30'0 0.0
2018-Jul-07 12:00N 47°32' W 122°30'0 0.0
2018-Jul-07 11:30N 47°32' W 122°30'0 0.1
2018-Jul-07 11:00N 47°32' W 122°30'0 0.0
2018-Jul-07 10:30N 47°32' W 122°30'0 0.0
2018-Jul-07 10:00N 47°32' W 122°30'0 0.0
2018-Jul-07 09:30N 47°32' W 122°30'0 0.0
2018-Jul-07 09:00N 47°32' W 122°30'0 0.0
2018-Jul-07 08:30N 47°32' W 122°30'0 0.0
2018-Jul-07 08:00N 47°32' W 122°30'0 0.0
2018-Jul-07 07:29N 47°32' W 122°30'0 0.0
2018-Jul-07 06:52N 47°32' W 122°30'0 0.0
2018-Jul-07 06:28N 47°32' W 122°30'0 0.0
2018-Jul-07 05:58N 47°32' W 122°30'0 0.0
2018-Jul-07 05:22N 47°32' W 122°30'0 0.0
2018-Jul-07 04:52N 47°32' W 122°30'0 0.0
2018-Jul-07 04:19N 47°32' W 122°30'0 0.0
2018-Jul-07 03:58N 47°32' W 122°30'0 0.1
2018-Jul-07 03:18N 47°32' W 122°30'0 0.0
2018-Jul-07 02:57N 47°32' W 122°30'0 0.0
2018-Jul-07 02:18N 47°32' W 122°30'0 0.0
2018-Jul-07 01:51N 47°32' W 122°30'0 0.0
2018-Jul-07 01:30N 47°32' W 122°30'0 0.0
2018-Jul-07 01:00N 47°32' W 122°30'0 0.3
2018-Jul-07 00:28N 47°32' W 122°30'3 5.7
2018-Jul-07 00:00N 47°34' W 122°28'3 6.3
2018-Jul-06 23:30N 47°37' W 122°25'  

Dump ship's entire track history